ADDS METAR Data INFO
IDs: Format: Raw Decoded Include TAF

Data at: 1431 UTC 20 Sep 2017

KHRX 201415Z AUTO 01006KT 10SM CLR 16/05 A2998 RMK AO2 T01620049
KHRX 201355Z AUTO 36005KT 10SM CLR 15/07 A2997 RMK AO2 T01520066
KHRX 201335Z AUTO 36006KT 10SM CLR 14/07 A2996 RMK AO2 T01360071
KHRX 201315Z AUTO 10SM CLR 12/08 A2996 RMK AO2 T01230076
KHRX 201255Z AUTO 10SM CLR 12/07 A2995 RMK AO2 T01200071
KHRX 201235Z AUTO 10SM CLR 13/07 A2995 RMK AO2 T01270066
KHRX 201215Z AUTO 10SM CLR 14/06 A2994 RMK AO2 T01400060
KHRX 201155Z AUTO 10SM CLR 15/06 A2992 RMK AO2 T01530057 10210 20139
KHRX 201135Z AUTO 10SM CLR 14/07 A2991 RMK AO2 T01410073
KHRX 201115Z AUTO 10SM CLR 14/08 A2988 RMK AO2 T01410077
KHRX 201055Z AUTO 10SM CLR 16/08 A2987 RMK AO2 T01550075
KHRX 201035Z AUTO 10SM CLR 16/08 A2986 RMK AO2 T01590077
KHRX 201015Z AUTO 27008KT 10SM CLR 17/08 A2986 RMK AO2 T01670075
KHRX 200955Z AUTO 24008KT 10SM CLR 18/08 A2985 RMK AO2 T01800076
KHRX 200935Z AUTO 25007KT 10SM CLR 18/08 A2985 RMK AO2 T01800081
KHRX 200915Z AUTO 24007KT 10SM CLR 18/08 A2985 RMK AO2 T01800084
KHRX 200855Z AUTO 23006KT 10SM CLR 18/09 A2984 RMK AO2 T01790085
KHRX 200835Z AUTO 23006KT 7SM CLR 18/09 A2984 RMK AO2 T01790089
KHRX 200815Z AUTO 22005KT 10SM CLR 18/09 A2984 RMK AO2 T01780088
KHRX 200755Z AUTO 24007KT 10SM CLR 19/09 A2984 RMK AO2 T01940086
KHRX 200735Z AUTO 23008KT 10SM CLR 19/09 A2984 RMK AO2 T01920087
KHRX 200715Z AUTO 24007KT 10SM CLR 19/09 A2984 RMK AO2 T01890091
KHRX 200655Z AUTO 23008KT 10SM CLR 20/09 A2984 RMK AO2 T01950090
KHRX 200635Z AUTO 23007KT 10SM CLR 20/09 A2984 RMK AO2 T01950090
KHRX 200615Z AUTO 22009KT 10SM CLR 21/09 A2984 RMK AO2 T02080085
KHRX 200555Z AUTO 22008KT 10SM CLR 21/09 A2984 RMK AO2 T02060085 10320 20201 403420185
KHRX 200535Z AUTO 22007KT 10SM CLR 20/09 A2984 RMK AO2 T02040087
KHRX 200515Z AUTO 22008KT 10SM CLR 21/09 A2983 RMK AO2 T02070086
KHRX 200455Z AUTO 22009KT 10SM CLR 21/09 A2983 RMK AO2 T02090085
KHRX 200435Z AUTO 22007KT 10SM CLR 21/09 A2983 RMK AO2 T02090086
KHRX 200415Z AUTO 22008KT 10SM CLR 21/09 A2982 RMK AO2 T02070087
KHRX 200355Z AUTO 21008KT 10SM CLR 22/09 A2982 RMK AO2 T02200086
KHRX 200335Z AUTO 22007KT 10SM CLR 23/09 A2982 RMK AO2 T02250085
KHRX 200315Z AUTO 22008KT 10SM CLR 23/09 A2981 RMK AO2 T02270086
KHRX 200255Z AUTO 21009KT 10SM CLR 24/09 A2981 RMK AO2 T02350087
KHRX 200235Z AUTO 21008KT 7SM CLR 25/08 A2981 RMK AO2 T02470084 PWINO
KHRX 200215Z AUTO 21008KT 5SM HZ CLR 25/08 A2980 RMK AO2 T02470082
KHRX 200155Z AUTO 22008KT 4SM HZ CLR 25/08 A2980 RMK AO2 T02540080
KHRX 200135Z AUTO 22008KT 4SM HZ CLR 25/07 A2979 RMK AO2 T02490074
KHRX 200115Z AUTO 21007KT 5SM HZ CLR 27/06 A2978 RMK AO2 T02740062
KHRX 200055Z AUTO 22007KT 10SM CLR 29/05 A2978 RMK AO2 T02890051
KHRX 200035Z AUTO 23010KT 10SM CLR 30/05 A2978 RMK AO2 T03010046
KHRX 200015Z AUTO 23011KT 10SM CLR 32/04 A2978 RMK AO2 T03160038
KHRX 192355Z AUTO 24013G17KT 10SM CLR 32/03 A2978 RMK AO2 T03220034 10342 20322
KHRX 192335Z AUTO 23021G25KT 10SM CLR 33/02 A2978 RMK AO2 T03300024
KHRX 192315Z AUTO 24016G23KT 10SM CLR 34/03 A2978 RMK AO2 T03350025
KHRX 192255Z AUTO 23018G23KT 10SM CLR 34/04 A2980 RMK AO2 T03390035
KHRX 192235Z AUTO 23011G19KT 10SM CLR 34/04 A2980 RMK AO2 T03400037
KHRX 192215Z AUTO 22014G24KT 10SM CLR 34/03 A2980 RMK AO2 T03400026
KHRX 192155Z AUTO 24017G23KT 10SM CLR 34/02 A2981 RMK AO2 T03400022
KHRX 192135Z AUTO 23016G20KT 10SM CLR 34/03 A2982 RMK AO2 T03400028
KHRX 192115Z AUTO 23017G24KT 10SM CLR 34/02 A2982 RMK AO2 T03380023
KHRX 192055Z AUTO 23021G26KT 10SM CLR 34/02 A2983 RMK AO2 T03370018
KHRX 192035Z AUTO 24015G26KT 10SM CLR 34/02 A2984 RMK AO2 T03410021
KHRX 192015Z AUTO 23020G27KT 10SM CLR 34/03 A2984 RMK AO2 T03350030
KHRX 191955Z AUTO 24022G29KT 10SM CLR 34/02 A2985 RMK AO2 T03350022
KHRX 191935Z AUTO 24022G29KT 10SM CLR 33/03 A2986 RMK AO2 T03330026
KHRX 191915Z AUTO 24021G30KT 10SM CLR 34/04 A2987 RMK AO2 T03350039
KHRX 191855Z AUTO 25018G26KT 10SM CLR 33/05 A2988 RMK AO2 T03280048
KHRX 191835Z AUTO 25022G28KT 10SM CLR 33/04 A2989 RMK AO2 T03250037
KHRX 191815Z AUTO 25021G28KT 10SM CLR 33/04 A2990 RMK AO2 T03250035
KHRX 191755Z AUTO 24022G28KT 10SM CLR 33/04 A2991 RMK AO2 T03270038 10327 20185
KHRX 191735Z AUTO 27018G24KT 10SM CLR 33/04 A2991 RMK AO2 T03250042
KHRX 191715Z AUTO 25020G25KT 10SM CLR 32/04 A2991 RMK AO2 T03200040
KHRX 191655Z AUTO 27015G20KT 10SM CLR 31/05 A2991 RMK AO2 T03090047
KHRX 191635Z AUTO 27015G20KT 10SM CLR 30/05 A2993 RMK AO2 T02990048
KHRX 191615Z AUTO 27014KT 10SM CLR 29/06 A2993 RMK AO2 T02900058
KHRX 191555Z AUTO 27013KT 10SM CLR 28/06 A2993 RMK AO2 T02800058
KHRX 191535Z AUTO 27011KT 10SM CLR 27/07 A2994 RMK AO2 T02670070
KHRX 191515Z AUTO 26011KT 10SM CLR 25/08 A2995 RMK AO2 T02500079
KHRX 191455Z AUTO 25010KT 10SM CLR 24/09 A2995 RMK AO2 T02410093
KHRX 191435Z AUTO 23011KT 10SM CLR 23/11 A2995 RMK AO2 T02270108
KHRX 191415Z AUTO 23011KT 10SM CLR 22/12 A2994 RMK AO2 T02160123
KHRX 191350Z AUTO 24010G15KT 10SM CLR 21/13 A2994 RMK AO2 T02050132
KHRX 191335Z AUTO 23010KT 10SM CLR 20/14 A2994 RMK AO2 T01970144
KHRX 191315Z AUTO 23009KT 10SM CLR 19/16 A2994 RMK AO2 T01900155
KHRX 191255Z AUTO 23010G16KT 10SM CLR 19/16 A2993 RMK AO2 T01860159
KHRX 191235Z AUTO 23012KT 10SM CLR 19/16 A2993 RMK AO2 T01870162
KHRX 191215Z AUTO 23010KT 10SM CLR 19/16 A2993 RMK AO2 T01900163
KHRX 191155Z AUTO 22013G18KT 10SM CLR 20/17 A2993 RMK AO2 T01960165 10215 20196
KHRX 191135Z AUTO 22012G17KT 10SM CLR 20/17 A2993 RMK AO2 T02000165
KHRX 191115Z AUTO 22012G15KT 10SM CLR 20/16 A2993 RMK AO2 T02000164
KHRX 191055Z AUTO 22013G17KT 10SM CLR 20/16 A2993 RMK AO2 T02010162
KHRX 191035Z AUTO 21012KT 10SM CLR 20/16 A2993 RMK AO2 T02020161
KHRX 191015Z AUTO 21013G18KT 10SM CLR 21/16 A2993 RMK AO2 T02050160
KHRX 190955Z AUTO 21012G17KT 10SM CLR 21/16 A2993 RMK AO2 T02060161
KHRX 190935Z AUTO 21011G17KT 10SM CLR 21/16 A2993 RMK AO2 T02060161
KHRX 190915Z AUTO 21011KT 10SM CLR 21/16 A2993 RMK AO2 T02070161
KHRX 190855Z AUTO 21011G16KT 10SM CLR 21/16 A2994 RMK AO2 T02060162
KHRX 190835Z AUTO 21010G16KT 10SM CLR 21/16 A2994 RMK AO2 T02050161
KHRX 190815Z AUTO 21011G17KT 10SM CLR 21/16 A2995 RMK AO2 T02080161
KHRX 190755Z AUTO 21011G18KT 10SM CLR 22/16 A2995 RMK AO2 T02150161
KHRX 190735Z AUTO 21013G19KT 10SM CLR 21/16 A2996 RMK AO2 T02130160
KHRX 190715Z AUTO 21011G16KT 10SM CLR 21/16 A2996 RMK AO2 T02090159
KHRX 190655Z AUTO 20012G17KT 10SM CLR 21/16 A2996 RMK AO2 T02100156
KHRX 190635Z AUTO 20013G22KT 10SM CLR 21/16 A2996 RMK AO2 T02110155
KHRX 190615Z AUTO 19012KT 10SM CLR 21/16 A2996 RMK AO2 T02090155
KHRX 190555Z AUTO 19007KT 10SM CLR 21/16 A2997 RMK AO2 T02110159 10295 20183 403130153
KHRX 190535Z AUTO 18008KT 10SM CLR 21/17 A2997 RMK AO2 T02100166
KHRX 190515Z AUTO 13005KT 10SM CLR 19/17 A2998 RMK AO2 T01940170
KHRX 190455Z AUTO 14006KT 10SM CLR 19/17 A2998 RMK AO2 T01930165
KHRX 190435Z AUTO 14004KT 10SM CLR 19/16 A2998 RMK AO2 T01900162
KHRX 190415Z AUTO 12007KT 10SM CLR 19/16 A2998 RMK AO2 T01850160
KHRX 190355Z AUTO 17005KT 10SM CLR 20/17 A2998 RMK AO2 T01950165
KHRX 190335Z AUTO 16004KT 10SM CLR 20/17 A2998 RMK AO2 T01960165
KHRX 190315Z AUTO 15004KT 10SM CLR 21/17 A2998 RMK AO2 T02120166
KHRX 190255Z AUTO 17004KT 10SM CLR 23/17 A2997 RMK AO2 T02250168
KHRX 190235Z AUTO 17005KT 10SM CLR 23/17 A2997 RMK AO2 T02260169